Tasman — ZDKI2 — position and weather

sailwx.info

Track history (hours):
 
Tides and Currents Weather Stations Pressure Air Temp Water Temp Dewpoint Dewpoint Depression Visibility Wind Speed Wind Dir Waves Ship Positions

Tasman

Last reported at 2017-Jan-17 12:34 UTC. Time now 2017-Jan-17 13:05 UTC.
Position N 51°06' E 003°44'.

Length 90 m; draft 4 m.

Type: Ship. MMSI: 23617000.

Date/timePositionNaut miles runAvg speedWind from/ knotsBaromVisibWave heightAir tempDewpointWater temp
2017-Jan-17 12:34N 51°06' E 003°44'0 0.0
2017-Jan-17 11:33N 51°06' E 003°44'0 0.0
2017-Jan-17 10:33N 51°06' E 003°44'0 0.0
2017-Jan-17 09:33N 51°06' E 003°44'0 0.0
2017-Jan-17 08:33N 51°06' E 003°44'0 0.0
2017-Jan-17 07:31N 51°06' E 003°44'0 0.0
2017-Jan-17 06:33N 51°06' E 003°44'0 0.0
2017-Jan-17 05:33N 51°06' E 003°44'0 0.0
2017-Jan-17 04:33N 51°06' E 003°44'0 0.0
2017-Jan-17 03:32N 51°06' E 003°44'0 0.0
2017-Jan-17 02:33N 51°06' E 003°44'5 5.3
2017-Jan-17 01:33N 51°11' E 003°48'8 7.5
2017-Jan-17 00:33N 51°18' E 003°50'2 1.7
2017-Jan-16 23:33N 51°20' E 003°49'7 7.1
2017-Jan-16 22:33N 51°25' E 003°40'9 9.0
2017-Jan-16 21:30N 51°24' E 003°25'9 9.7
2017-Jan-16 20:33N 51°23' E 003°11'1111.3
2017-Jan-16 19:33N 51°21' E 002°53'9 9.4
2017-Jan-16 18:33N 51°16' E 002°40'1212.4
2017-Jan-16 17:33N 51°06' E 002°30'6 5.7
2017-Jan-16 16:33N 51°03' E 002°22'4 2.9
2017-Jan-16 15:15N 51°02' E 002°16'0 0.0
2017-Jan-16 14:25N 51°02' E 002°16'0 0.0
2017-Jan-16 13:15N 51°02' E 002°16'0 0.0
2017-Jan-16 12:32N 51°02' E 002°16'0 0.0
2017-Jan-16 11:14N 51°02' E 002°16'0 0.0
2017-Jan-16 10:18N 51°02' E 002°16'0 0.0
2017-Jan-16 07:07N 51°02' E 002°16'0 0.0
2017-Jan-16 06:10N 51°02' E 002°16'0 0.0
2017-Jan-16 05:32N 51°02' E 002°16'0 0.0
2017-Jan-16 03:32N 51°02' E 002°16'0 0.0
2017-Jan-16 02:05N 51°02' E 002°16'0 0.0
2017-Jan-16 01:28N 51°02' E 002°16'0 0.0
2017-Jan-16 00:27N 51°02' E 002°16'0 0.0
2017-Jan-15 22:04N 51°02' E 002°16'0 0.0
2017-Jan-15 15:14N 51°02' E 002°16'3 4.2
2017-Jan-15 14:31N 51°03' E 002°20'4 4.0
2017-Jan-15 13:30N 51°03' E 002°14'10 8.4
2017-Jan-15 12:19N 51°02' E 001°58'1114.2
2017-Jan-15 11:34N 50°58' E 001°42'8011.3
2017-Jan-15 04:31N 50°19' W 000°07'4210.7
2017-Jan-15 00:34N 50°11' W 001°12'1414.0
2017-Jan-14 23:33N 50°11' W 001°34'10414.3
2017-Jan-14 16:16N 49°60' W 004°15'912.4
2017-Jan-14 15:33N 49°59' W 004°29'16010.0
2017-Jan-13 23:33N 52°09' W 006°58'7 7.4
2017-Jan-13 22:33N 52°16' W 007°02'0 0.0
2017-Jan-13 21:33N 52°16' W 007°02'0 0.0
2017-Jan-13 20:33N 52°16' W 007°02'0 0.0
2017-Jan-13 19:33N 52°16' W 007°02'0 0.0
2017-Jan-13 18:33N 52°16' W 007°02'0 0.0
2017-Jan-13 17:33N 52°16' W 007°02'0 0.0
2017-Jan-13 16:33N 52°16' W 007°02'0 0.0
2017-Jan-13 15:33N 52°16' W 007°02'0 0.0
2017-Jan-13 14:33N 52°16' W 007°02'0 0.0
2017-Jan-13 13:33N 52°16' W 007°02'0 0.0
2017-Jan-13 12:33N 52°16' W 007°02'0 0.0
2017-Jan-13 11:33N 52°16' W 007°02'0 0.0
2017-Jan-13 10:33N 52°16' W 007°02'0 0.0
2017-Jan-13 09:33N 52°16' W 007°02'0 0.0
2017-Jan-13 08:33N 52°16' W 007°02'0 0.0
2017-Jan-13 07:33N 52°16' W 007°02'0 0.0
2017-Jan-13 06:33N 52°16' W 007°02'2 2.5
2017-Jan-13 05:33N 52°15' W 006°59'8 7.7
2017-Jan-13 04:33N 52°07' W 006°58'5 4.7
2017-Jan-13 03:33N 52°02' W 006°59'6 5.8
2017-Jan-13 02:33N 51°56' W 006°60'7 7.1
2017-Jan-13 01:33N 51°49' W 006°60'237 9.7
2017-Jan-12 01:10N 48°03' W 005°13'812.5
2017-Jan-12 00:33N 47°58' W 005°04'1312.9
2017-Jan-11 23:33N 47°51' W 004°48'2512.4
2017-Jan-11 21:33N 47°39' W 004°16'1212.1
2017-Jan-11 20:32N 47°33' W 004°00'1212.1
2017-Jan-11 19:33N 47°27' W 003°45'1211.8
2017-Jan-11 18:33N 47°21' W 003°30'1211.9
2017-Jan-11 17:33N 47°15' W 003°14'1212.0
2017-Jan-11 16:33N 47°12' W 002°58'1212.0
2017-Jan-11 15:33N 47°08' W 002°41'1212.0
2017-Jan-11 14:32N 47°08' W 002°23'1110.7
2017-Jan-11 13:33N 47°16' W 002°13'1 1.4
2017-Jan-11 12:33N 47°17' W 002°12'0 0.0
2017-Jan-11 11:32N 47°17' W 002°12'0 0.0
2017-Jan-11 10:33N 47°17' W 002°12'0 0.0
2017-Jan-11 09:28N 47°17' W 002°12'0 0.0
2017-Jan-11 08:31N 47°17' W 002°12'0 0.0
2017-Jan-11 06:08N 47°17' W 002°12'0 0.0
2017-Jan-11 04:25N 47°17' W 002°12'0 0.0
2017-Jan-11 03:19N 47°17' W 002°12'0 0.0
2017-Jan-11 02:21N 47°17' W 002°12'0 0.0
2017-Jan-11 01:07N 47°17' W 002°12'0 0.0
2017-Jan-11 00:30N 47°17' W 002°12'0 0.0
2017-Jan-10 23:33N 47°17' W 002°12'0 0.0
2017-Jan-10 22:32N 47°17' W 002°12'0 0.0
2017-Jan-10 21:33N 47°17' W 002°12'0 0.0
2017-Jan-10 20:33N 47°17' W 002°12'0 0.0
2017-Jan-10 19:33N 47°17' W 002°12'0 0.0
2017-Jan-10 18:32N 47°17' W 002°12'0 0.0
2017-Jan-10 17:07N 47°17' W 002°12'0 0.0
2017-Jan-10 16:33N 47°17' W 002°12'0 0.0
2017-Jan-10 15:33N 47°17' W 002°12'0 0.0
2017-Jan-10 13:23N 47°17' W 002°12'0 0.0
2017-Jan-10 12:33N 47°17' W 002°12'0 0.0
2017-Jan-10 11:32N 47°17' W 002°12'0 0.0
2017-Jan-10 10:33N 47°17' W 002°12'0 0.0
2017-Jan-10 08:09N 47°17' W 002°12'0 0.0
2017-Jan-10 07:31N 47°17' W 002°12'0 0.0
2017-Jan-10 06:08N 47°17' W 002°12'0 0.0
2017-Jan-09 21:33N 47°17' W 002°12'0 0.0
2017-Jan-09 20:33N 47°17' W 002°12'0 0.0
2017-Jan-09 19:33N 47°17' W 002°12'0 0.0
2017-Jan-09 18:33N 47°17' W 002°12'0 0.0
2017-Jan-09 17:33N 47°17' W 002°12'0 0.0
2017-Jan-09 16:33N 47°17' W 002°12'0 0.0
2017-Jan-09 14:09N 47°17' W 002°12'0 0.0
2017-Jan-09 13:33N 47°17' W 002°12'0 0.0
2017-Jan-09 12:29N 47°17' W 002°12'0 0.0
2017-Jan-09 10:21N 47°17' W 002°12'0 0.0
2017-Jan-09 09:29N 47°17' W 002°12'0 0.0
2017-Jan-09 07:33N 47°17' W 002°12'0 0.0
2017-Jan-09 06:30N 47°17' W 002°12'0 0.0
2017-Jan-09 05:21N 47°17' W 002°12'23 1.1
2017-Jan-08 08:33N 47°08' W 002°44'1110.7
2017-Jan-08 07:33N 47°11' W 002°59'1111.0
2017-Jan-08 06:33N 47°15' W 003°14'1212.3
2017-Jan-08 05:33N 47°21' W 003°30'1212.4
2017-Jan-08 04:33N 47°27' W 003°46'1312.4
2017-Jan-08 03:29N 47°34' W 004°03'3712.7
2017-Jan-08 00:33N 47°52' W 004°50'  
Track history (hours):
 
Tides and Currents Weather Stations Pressure Air Temp Water Temp Dewpoint Dewpoint Depression Visibility Wind Speed Wind Dir Waves Ship Positions

Tasman

Last reported at 2017-Jan-17 12:34 UTC. Time now 2017-Jan-17 13:05 UTC.
Position N 51°06' E 003°44'.

Length 90 m; draft 4 m.

Type: Ship. MMSI: 23617000.

Date/timePositionNaut miles runAvg speedWind from/ knotsBaromVisibWave heightAir tempDewpointWater temp
2017-Jan-17 12:34N 51°06' E 003°44'0 0.0
2017-Jan-17 11:33N 51°06' E 003°44'0 0.0
2017-Jan-17 10:33N 51°06' E 003°44'0 0.0
2017-Jan-17 09:33N 51°06' E 003°44'0 0.0
2017-Jan-17 08:33N 51°06' E 003°44'0 0.0
2017-Jan-17 07:31N 51°06' E 003°44'0 0.0
2017-Jan-17 06:33N 51°06' E 003°44'0 0.0
2017-Jan-17 05:33N 51°06' E 003°44'0 0.0
2017-Jan-17 04:33N 51°06' E 003°44'0 0.0
2017-Jan-17 03:32N 51°06' E 003°44'0 0.0
2017-Jan-17 02:33N 51°06' E 003°44'5 5.3
2017-Jan-17 01:33N 51°11' E 003°48'8 7.5
2017-Jan-17 00:33N 51°18' E 003°50'2 1.7
2017-Jan-16 23:33N 51°20' E 003°49'7 7.1
2017-Jan-16 22:33N 51°25' E 003°40'9 9.0
2017-Jan-16 21:30N 51°24' E 003°25'9 9.7
2017-Jan-16 20:33N 51°23' E 003°11'1111.3
2017-Jan-16 19:33N 51°21' E 002°53'9 9.4
2017-Jan-16 18:33N 51°16' E 002°40'1212.4
2017-Jan-16 17:33N 51°06' E 002°30'6 5.7
2017-Jan-16 16:33N 51°03' E 002°22'4 2.9
2017-Jan-16 15:15N 51°02' E 002°16'0 0.0
2017-Jan-16 14:25N 51°02' E 002°16'0 0.0
2017-Jan-16 13:15N 51°02' E 002°16'0 0.0
2017-Jan-16 12:32N 51°02' E 002°16'0 0.0
2017-Jan-16 11:14N 51°02' E 002°16'0 0.0
2017-Jan-16 10:18N 51°02' E 002°16'0 0.0
2017-Jan-16 07:07N 51°02' E 002°16'0 0.0
2017-Jan-16 06:10N 51°02' E 002°16'0 0.0
2017-Jan-16 05:32N 51°02' E 002°16'0 0.0
2017-Jan-16 03:32N 51°02' E 002°16'0 0.0
2017-Jan-16 02:05N 51°02' E 002°16'0 0.0
2017-Jan-16 01:28N 51°02' E 002°16'0 0.0
2017-Jan-16 00:27N 51°02' E 002°16'0 0.0
2017-Jan-15 22:04N 51°02' E 002°16'0 0.0
2017-Jan-15 15:14N 51°02' E 002°16'3 4.2
2017-Jan-15 14:31N 51°03' E 002°20'4 4.0
2017-Jan-15 13:30N 51°03' E 002°14'10 8.4
2017-Jan-15 12:19N 51°02' E 001°58'1114.2
2017-Jan-15 11:34N 50°58' E 001°42'8011.3
2017-Jan-15 04:31N 50°19' W 000°07'4210.7
2017-Jan-15 00:34N 50°11' W 001°12'1414.0
2017-Jan-14 23:33N 50°11' W 001°34'10414.3
2017-Jan-14 16:16N 49°60' W 004°15'912.4
2017-Jan-14 15:33N 49°59' W 004°29'16010.0
2017-Jan-13 23:33N 52°09' W 006°58'7 7.4
2017-Jan-13 22:33N 52°16' W 007°02'0 0.0
2017-Jan-13 21:33N 52°16' W 007°02'0 0.0
2017-Jan-13 20:33N 52°16' W 007°02'0 0.0
2017-Jan-13 19:33N 52°16' W 007°02'0 0.0
2017-Jan-13 18:33N 52°16' W 007°02'0 0.0
2017-Jan-13 17:33N 52°16' W 007°02'0 0.0
2017-Jan-13 16:33N 52°16' W 007°02'0 0.0
2017-Jan-13 15:33N 52°16' W 007°02'0 0.0
2017-Jan-13 14:33N 52°16' W 007°02'0 0.0
2017-Jan-13 13:33N 52°16' W 007°02'0 0.0
2017-Jan-13 12:33N 52°16' W 007°02'0 0.0
2017-Jan-13 11:33N 52°16' W 007°02'0 0.0
2017-Jan-13 10:33N 52°16' W 007°02'0 0.0
2017-Jan-13 09:33N 52°16' W 007°02'0 0.0
2017-Jan-13 08:33N 52°16' W 007°02'0 0.0
2017-Jan-13 07:33N 52°16' W 007°02'0 0.0
2017-Jan-13 06:33N 52°16' W 007°02'2 2.5
2017-Jan-13 05:33N 52°15' W 006°59'8 7.7
2017-Jan-13 04:33N 52°07' W 006°58'5 4.7
2017-Jan-13 03:33N 52°02' W 006°59'6 5.8
2017-Jan-13 02:33N 51°56' W 006°60'7 7.1
2017-Jan-13 01:33N 51°49' W 006°60'237 9.7
2017-Jan-12 01:10N 48°03' W 005°13'812.5
2017-Jan-12 00:33N 47°58' W 005°04'1312.9
2017-Jan-11 23:33N 47°51' W 004°48'2512.4
2017-Jan-11 21:33N 47°39' W 004°16'1212.1
2017-Jan-11 20:32N 47°33' W 004°00'1212.1
2017-Jan-11 19:33N 47°27' W 003°45'1211.8
2017-Jan-11 18:33N 47°21' W 003°30'1211.9
2017-Jan-11 17:33N 47°15' W 003°14'1212.0
2017-Jan-11 16:33N 47°12' W 002°58'1212.0
2017-Jan-11 15:33N 47°08' W 002°41'1212.0
2017-Jan-11 14:32N 47°08' W 002°23'1110.7
2017-Jan-11 13:33N 47°16' W 002°13'1 1.4
2017-Jan-11 12:33N 47°17' W 002°12'0 0.0
2017-Jan-11 11:32N 47°17' W 002°12'0 0.0
2017-Jan-11 10:33N 47°17' W 002°12'0 0.0
2017-Jan-11 09:28N 47°17' W 002°12'0 0.0
2017-Jan-11 08:31N 47°17' W 002°12'0 0.0
2017-Jan-11 06:08N 47°17' W 002°12'0 0.0
2017-Jan-11 04:25N 47°17' W 002°12'0 0.0
2017-Jan-11 03:19N 47°17' W 002°12'0 0.0
2017-Jan-11 02:21N 47°17' W 002°12'0 0.0
2017-Jan-11 01:07N 47°17' W 002°12'0 0.0
2017-Jan-11 00:30N 47°17' W 002°12'0 0.0
2017-Jan-10 23:33N 47°17' W 002°12'0 0.0
2017-Jan-10 22:32N 47°17' W 002°12'0 0.0
2017-Jan-10 21:33N 47°17' W 002°12'0 0.0
2017-Jan-10 20:33N 47°17' W 002°12'0 0.0
2017-Jan-10 19:33N 47°17' W 002°12'0 0.0
2017-Jan-10 18:32N 47°17' W 002°12'0 0.0
2017-Jan-10 17:07N 47°17' W 002°12'0 0.0
2017-Jan-10 16:33N 47°17' W 002°12'0 0.0
2017-Jan-10 15:33N 47°17' W 002°12'0 0.0
2017-Jan-10 13:23N 47°17' W 002°12'0 0.0
2017-Jan-10 12:33N 47°17' W 002°12'0 0.0
2017-Jan-10 11:32N 47°17' W 002°12'0 0.0
2017-Jan-10 10:33N 47°17' W 002°12'0 0.0
2017-Jan-10 08:09N 47°17' W 002°12'0 0.0
2017-Jan-10 07:31N 47°17' W 002°12'0 0.0
2017-Jan-10 06:08N 47°17' W 002°12'0 0.0
2017-Jan-09 21:33N 47°17' W 002°12'0 0.0
2017-Jan-09 20:33N 47°17' W 002°12'0 0.0
2017-Jan-09 19:33N 47°17' W 002°12'0 0.0
2017-Jan-09 18:33N 47°17' W 002°12'0 0.0
2017-Jan-09 17:33N 47°17' W 002°12'0 0.0
2017-Jan-09 16:33N 47°17' W 002°12'0 0.0
2017-Jan-09 14:09N 47°17' W 002°12'0 0.0
2017-Jan-09 13:33N 47°17' W 002°12'0 0.0
2017-Jan-09 12:29N 47°17' W 002°12'0 0.0
2017-Jan-09 10:21N 47°17' W 002°12'0 0.0
2017-Jan-09 09:29N 47°17' W 002°12'0 0.0
2017-Jan-09 07:33N 47°17' W 002°12'0 0.0
2017-Jan-09 06:30N 47°17' W 002°12'0 0.0
2017-Jan-09 05:21N 47°17' W 002°12'23 1.1
2017-Jan-08 08:33N 47°08' W 002°44'1110.7
2017-Jan-08 07:33N 47°11' W 002°59'1111.0
2017-Jan-08 06:33N 47°15' W 003°14'1212.3
2017-Jan-08 05:33N 47°21' W 003°30'1212.4
2017-Jan-08 04:33N 47°27' W 003°46'1312.4
2017-Jan-08 03:29N 47°34' W 004°03'3712.7
2017-Jan-08 00:33N 47°52' W 004°50'  

Dump ship's entire track history